createdAt,value
2022-10-08T02:00:47.316Z,16.90
2022-10-08T02:01:07.964Z,17.40
2022-10-08T02:01:28.577Z,17.30
2022-10-08T02:01:49.179Z,16.30
2022-10-08T02:02:09.658Z,18.70
2022-10-08T02:02:30.320Z,18.10
2022-10-08T02:02:50.907Z,18.30
2022-10-08T02:03:11.492Z,16.80
2022-10-08T02:03:32.078Z,16.50
2022-10-08T02:03:52.673Z,17.60
2022-10-08T02:04:13.262Z,18.30
2022-10-08T02:04:33.845Z,18.90
2022-10-08T02:04:54.424Z,20.00
2022-10-08T02:05:14.821Z,18.90
2022-10-08T02:05:35.403Z,18.70
2022-10-08T02:05:55.988Z,18.50
2022-10-08T02:06:16.567Z,17.90
2022-10-08T02:06:37.147Z,19.40
2022-10-08T02:06:57.732Z,18.30
2022-10-08T02:07:18.339Z,17.20
2022-10-08T02:07:38.902Z,16.40
2022-10-08T02:07:59.480Z,17.30
2022-10-08T02:08:20.065Z,18.40
2022-10-08T02:08:40.460Z,17.00
2022-10-08T02:09:01.060Z,14.70
2022-10-08T02:09:21.640Z,16.00
2022-10-08T02:09:42.223Z,17.30
2022-10-08T02:10:02.809Z,15.80
2022-10-08T02:10:23.200Z,16.60
2022-10-08T02:10:43.784Z,17.20
2022-10-08T02:11:04.367Z,16.70
2022-10-08T02:11:24.950Z,15.60
2022-10-08T02:11:45.533Z,16.70
2022-10-08T02:12:06.115Z,15.00
2022-10-08T02:12:26.692Z,17.30
2022-10-08T02:12:47.478Z,17.60
2022-10-08T02:13:08.196Z,16.40
2022-10-08T02:13:28.787Z,16.70
2022-10-08T02:13:49.358Z,16.50
2022-10-08T02:14:09.970Z,17.60
2022-10-08T02:14:30.550Z,17.10
2022-10-08T02:14:51.154Z,15.70
2022-10-08T02:15:11.727Z,17.30
2022-10-08T02:15:32.309Z,18.20
2022-10-08T02:15:52.727Z,17.20
2022-10-08T02:16:13.319Z,16.50
2022-10-08T02:16:33.926Z,17.00
2022-10-08T02:16:54.591Z,16.40
2022-10-08T02:17:14.936Z,17.20
2022-10-08T02:17:35.513Z,17.10
2022-10-08T02:17:56.102Z,16.50
2022-10-08T02:18:16.686Z,16.50
2022-10-08T02:18:37.277Z,16.80
2022-10-08T02:18:57.855Z,15.20
2022-10-08T02:19:18.459Z,16.00
2022-10-08T02:19:39.048Z,15.70
2022-10-08T02:19:59.620Z,14.40
2022-10-08T02:20:20.201Z,13.30
2022-10-08T02:20:40.784Z,17.20
2022-10-08T02:21:01.367Z,16.20
2022-10-08T02:21:21.950Z,15.00
2022-10-08T02:21:42.535Z,16.90
2022-10-08T02:22:03.121Z,16.20
2022-10-08T02:22:23.703Z,16.20
2022-10-08T02:22:44.526Z,13.10
2022-10-08T02:23:05.279Z,14.70
2022-10-08T02:23:25.863Z,15.60
2022-10-08T02:23:46.450Z,16.80
2022-10-08T02:24:07.044Z,15.70
2022-10-08T02:24:27.656Z,14.60
2022-10-08T02:24:48.241Z,14.80
2022-10-08T02:25:08.823Z,14.00
2022-10-08T02:25:29.229Z,15.70
2022-10-08T02:25:49.805Z,15.30
2022-10-08T02:26:10.208Z,14.90
2022-10-08T02:26:30.599Z,15.30
2022-10-08T02:26:51.178Z,14.70
2022-10-08T02:27:11.585Z,16.10
2022-10-08T02:27:32.162Z,15.40
2022-10-08T02:27:52.746Z,15.30
2022-10-08T02:28:13.427Z,15.90
2022-10-08T02:28:34.070Z,15.00
2022-10-08T02:28:54.681Z,13.90
2022-10-08T02:29:15.266Z,16.50
2022-10-08T02:29:35.859Z,18.10
2022-10-08T02:29:56.445Z,14.70
2022-10-08T02:30:16.839Z,15.70
2022-10-08T02:30:37.423Z,15.50
2022-10-08T02:30:58.024Z,14.80
2022-10-08T02:31:18.654Z,17.00
2022-10-08T02:31:39.279Z,16.40
2022-10-08T02:31:59.900Z,16.00
2022-10-08T02:32:20.494Z,14.70
2022-10-08T02:32:41.080Z,15.00
2022-10-08T02:33:01.659Z,15.60
2022-10-08T02:33:22.241Z,18.20
2022-10-08T02:33:42.827Z,17.30
2022-10-08T02:34:03.422Z,16.70
2022-10-08T02:34:23.832Z,17.20
2022-10-08T02:34:44.419Z,17.90
2022-10-08T02:35:04.811Z,19.00
2022-10-08T02:35:25.567Z,16.50
2022-10-08T02:35:46.134Z,17.30
2022-10-08T02:36:06.715Z,17.50
2022-10-08T02:36:27.301Z,17.50
2022-10-08T02:36:47.874Z,17.40
2022-10-08T02:37:08.462Z,16.90
2022-10-08T02:37:29.041Z,16.30
2022-10-08T02:37:49.629Z,16.80
2022-10-08T02:38:10.213Z,15.60
2022-10-08T02:38:30.803Z,17.90
2022-10-08T02:38:51.381Z,16.60
2022-10-08T02:39:11.957Z,16.80
2022-10-08T02:39:32.559Z,16.40
2022-10-08T02:39:53.142Z,16.60
2022-10-08T02:40:13.543Z,17.60
2022-10-08T02:40:34.131Z,15.10
2022-10-08T02:40:54.708Z,16.00
2022-10-08T02:41:15.291Z,16.20
2022-10-08T02:41:35.880Z,16.90
2022-10-08T02:41:56.461Z,14.10
2022-10-08T02:42:17.049Z,19.10
2022-10-08T02:42:37.632Z,18.00
2022-10-08T02:42:58.215Z,17.20
2022-10-08T02:43:18.802Z,18.40
2022-10-08T02:43:39.199Z,16.10
2022-10-08T02:43:59.785Z,15.70
2022-10-08T02:44:20.363Z,16.00
2022-10-08T02:44:40.965Z,14.80
2022-10-08T02:45:01.646Z,17.20
2022-10-08T02:45:22.191Z,15.20
2022-10-08T02:45:42.831Z,15.50
2022-10-08T02:46:03.527Z,14.10
2022-10-08T02:46:24.254Z,16.50
2022-10-08T02:46:44.848Z,18.70
2022-10-08T02:47:05.433Z,17.80
2022-10-08T02:47:25.838Z,16.70
2022-10-08T02:47:46.413Z,17.50
2022-10-08T02:48:06.997Z,15.90
2022-10-08T02:48:27.585Z,17.00
2022-10-08T02:48:48.170Z,15.00
2022-10-08T02:49:08.752Z,15.80
2022-10-08T02:49:29.342Z,14.70
2022-10-08T02:49:49.937Z,13.90
2022-10-08T02:50:10.522Z,13.60
2022-10-08T02:50:31.108Z,15.00
2022-10-08T02:50:51.683Z,14.60
2022-10-08T02:51:12.267Z,15.40
2022-10-08T02:51:32.847Z,16.00
2022-10-08T02:51:53.432Z,16.00
2022-10-08T02:52:14.011Z,16.10
2022-10-08T02:52:34.597Z,17.00
2022-10-08T02:52:55.184Z,17.30
2022-10-08T02:53:15.777Z,15.90
2022-10-08T02:53:36.599Z,15.70
2022-10-08T02:53:57.179Z,14.80
2022-10-08T02:54:17.760Z,18.20
2022-10-08T02:54:38.369Z,20.10
2022-10-08T02:54:58.945Z,14.20
2022-10-08T02:55:19.340Z,14.30
2022-10-08T02:55:39.925Z,14.80
2022-10-08T02:56:00.507Z,16.10
2022-10-08T02:56:21.093Z,13.80
2022-10-08T02:56:41.676Z,13.10
2022-10-08T02:57:07.033Z,15.60
2022-10-08T02:57:22.650Z,17.20
2022-10-08T02:57:43.241Z,17.10
2022-10-08T02:58:03.824Z,16.40
2022-10-08T02:58:24.408Z,14.50
2022-10-08T02:58:44.990Z,16.00
2022-10-08T02:59:05.380Z,15.70
2022-10-08T02:59:25.965Z,14.10
2022-10-08T02:59:46.567Z,13.90
2022-10-08T03:00:07.139Z,15.60
2022-10-08T03:00:27.727Z,15.50
2022-10-08T03:00:48.355Z,15.80
2022-10-08T03:01:09.059Z,15.70
2022-10-08T03:01:29.783Z,14.90
2022-10-08T03:01:50.451Z,13.40
2022-10-08T03:02:11.169Z,16.40
2022-10-08T03:02:31.610Z,18.00
2022-10-08T03:02:52.299Z,14.80
2022-10-08T03:03:12.879Z,12.70
2022-10-08T03:03:33.467Z,13.80
2022-10-08T03:03:54.045Z,14.10
2022-10-08T03:04:14.629Z,14.30
2022-10-08T03:04:35.026Z,13.80
2022-10-08T03:04:55.621Z,14.60
2022-10-08T03:05:16.211Z,14.30
2022-10-08T03:05:36.791Z,13.90
2022-10-08T03:05:57.370Z,13.80
2022-10-08T03:06:17.956Z,13.70
2022-10-08T03:06:38.539Z,13.20
2022-10-08T03:06:59.130Z,11.40
2022-10-08T03:07:19.707Z,13.20
2022-10-08T03:07:40.289Z,13.00
2022-10-08T03:08:00.869Z,14.00
2022-10-08T03:08:21.461Z,12.90
2022-10-08T03:08:42.039Z,16.10
2022-10-08T03:09:02.622Z,13.80
2022-10-08T03:09:23.200Z,14.30
2022-10-08T03:09:43.799Z,13.70
2022-10-08T03:10:04.385Z,12.70
2022-10-08T03:10:24.967Z,10.90
2022-10-08T03:10:45.546Z,11.90
2022-10-08T03:11:06.140Z,13.80
2022-10-08T03:11:26.713Z,14.60
2022-10-08T03:11:47.302Z,15.00
2022-10-08T03:12:07.876Z,13.90
2022-10-08T03:12:28.460Z,12.70
2022-10-08T03:12:49.659Z,14.70
2022-10-08T03:13:10.399Z,16.50
2022-10-08T03:13:30.980Z,13.70
2022-10-08T03:13:51.568Z,13.80
2022-10-08T03:14:12.148Z,15.60
2022-10-08T03:14:32.732Z,12.90
2022-10-08T03:14:53.334Z,13.90
2022-10-08T03:15:13.912Z,13.10
2022-10-08T03:15:34.499Z,12.70
2022-10-08T03:15:55.089Z,12.00
2022-10-08T03:16:15.718Z,12.80
2022-10-08T03:16:36.414Z,12.90
2022-10-08T03:16:57.090Z,12.50
2022-10-08T03:17:17.690Z,12.50
2022-10-08T03:17:38.265Z,15.90
2022-10-08T03:17:58.850Z,15.50
2022-10-08T03:18:19.427Z,11.50
2022-10-08T03:18:40.011Z,12.90
2022-10-08T03:19:00.593Z,12.80
2022-10-08T03:19:21.177Z,14.00
2022-10-08T03:19:41.759Z,14.00
2022-10-08T03:20:02.349Z,12.50
2022-10-08T03:20:22.934Z,13.40
2022-10-08T03:20:43.515Z,14.40
2022-10-08T03:21:04.113Z,13.50
2022-10-08T03:21:24.702Z,14.60
2022-10-08T03:21:45.290Z,13.60
2022-10-08T03:22:05.939Z,14.80
2022-10-08T03:22:26.556Z,15.90
2022-10-08T03:22:47.435Z,15.20
2022-10-08T03:23:08.142Z,13.10
2022-10-08T03:23:28.538Z,11.40
2022-10-08T03:23:49.124Z,12.00
2022-10-08T03:24:09.703Z,11.40
2022-10-08T03:24:30.095Z,11.70
2022-10-08T03:24:53.772Z,12.60
2022-10-08T03:25:11.101Z,12.00
2022-10-08T03:25:31.685Z,12.30
2022-10-08T03:25:52.280Z,13.00
2022-10-08T03:26:12.863Z,12.00
2022-10-08T03:26:33.256Z,11.20
2022-10-08T03:26:53.839Z,13.10
2022-10-08T03:27:14.423Z,15.10
2022-10-08T03:27:35.005Z,11.90
2022-10-08T03:27:55.585Z,13.40
2022-10-08T03:28:16.234Z,14.40
2022-10-08T03:28:36.647Z,12.50
2022-10-08T03:28:57.243Z,12.50
2022-10-08T03:29:17.823Z,12.60
2022-10-08T03:29:38.404Z,12.10
2022-10-08T03:29:59.003Z,11.20
2022-10-08T03:30:19.590Z,11.10
2022-10-08T03:30:40.211Z,12.50
2022-10-08T03:31:00.857Z,12.50
2022-10-08T03:31:21.482Z,12.60
2022-10-08T03:31:42.051Z,11.50
2022-10-08T03:32:02.625Z,13.00
2022-10-08T03:32:23.214Z,14.30
2022-10-08T03:32:43.940Z,12.50
2022-10-08T03:33:04.563Z,11.90
2022-10-08T03:33:25.149Z,13.30
2022-10-08T03:33:45.555Z,13.00
2022-10-08T03:34:06.130Z,13.40
2022-10-08T03:34:26.713Z,11.60
2022-10-08T03:34:47.306Z,10.60
2022-10-08T03:35:07.886Z,11.60
2022-10-08T03:35:28.474Z,11.60
2022-10-08T03:35:49.056Z,11.20
2022-10-08T03:36:09.643Z,11.70
2022-10-08T03:36:30.225Z,12.80
2022-10-08T03:36:50.808Z,10.90
2022-10-08T03:37:11.390Z,11.10
2022-10-08T03:37:31.977Z,12.30
2022-10-08T03:37:52.560Z,12.20
2022-10-08T03:38:13.162Z,13.30
2022-10-08T03:38:33.742Z,13.10
2022-10-08T03:38:54.327Z,12.10
2022-10-08T03:39:14.927Z,11.80
2022-10-08T03:39:35.494Z,11.70
2022-10-08T03:39:56.084Z,11.60
2022-10-08T03:40:16.681Z,11.00
2022-10-08T03:40:37.264Z,11.70
2022-10-08T03:40:57.853Z,11.20
2022-10-08T03:41:18.246Z,11.30
2022-10-08T03:41:38.836Z,12.20
2022-10-08T03:41:59.412Z,11.90
2022-10-08T03:42:19.999Z,12.30
2022-10-08T03:42:40.582Z,11.30
2022-10-08T03:43:01.169Z,13.00
2022-10-08T03:43:21.745Z,12.60
2022-10-08T03:43:42.329Z,13.40
2022-10-08T03:44:02.724Z,12.50
2022-10-08T03:44:23.311Z,12.10
2022-10-08T03:44:43.906Z,11.10
2022-10-08T03:45:04.493Z,10.50
2022-10-08T03:45:25.080Z,11.40
2022-10-08T03:45:45.677Z,10.90
2022-10-08T03:46:06.341Z,10.20
2022-10-08T03:46:27.033Z,11.40
2022-10-08T03:46:47.594Z,10.80
2022-10-08T03:47:08.183Z,11.20
2022-10-08T03:47:28.760Z,11.80
2022-10-08T03:47:49.344Z,11.70
2022-10-08T03:48:09.925Z,11.30
2022-10-08T03:48:30.524Z,11.70
2022-10-08T03:48:51.121Z,10.40
2022-10-08T03:49:11.703Z,10.70
2022-10-08T03:49:32.288Z,11.20
2022-10-08T03:49:52.890Z,11.70
2022-10-08T03:50:13.469Z,11.30
2022-10-08T03:50:34.053Z,11.20
2022-10-08T03:50:54.635Z,11.70
2022-10-08T03:51:15.217Z,13.10
2022-10-08T03:51:35.803Z,12.10
2022-10-08T03:51:56.387Z,11.70
2022-10-08T03:52:16.969Z,11.10
2022-10-08T03:52:37.551Z,13.70
2022-10-08T03:52:58.135Z,11.40
2022-10-08T03:53:18.722Z,13.20
2022-10-08T03:53:39.313Z,14.00
2022-10-08T03:53:59.900Z,12.40
2022-10-08T03:54:20.472Z,11.40
2022-10-08T03:54:41.077Z,11.10
2022-10-08T03:55:01.659Z,10.90
2022-10-08T03:55:22.243Z,12.80
2022-10-08T03:55:42.822Z,11.80
2022-10-08T03:56:03.226Z,12.60
2022-10-08T03:56:23.792Z,13.70
2022-10-08T03:56:44.188Z,11.30
2022-10-08T03:57:04.768Z,11.40
2022-10-08T03:57:25.166Z,12.60
2022-10-08T03:57:45.744Z,11.90
2022-10-08T03:58:06.326Z,13.10
2022-10-08T03:58:26.911Z,11.60
2022-10-08T03:58:47.494Z,11.30
2022-10-08T03:59:07.884Z,12.20
2022-10-08T03:59:28.466Z,11.40
2022-10-08T03:59:49.063Z,11.20
2022-10-08T04:00:09.647Z,10.60
2022-10-08T04:00:30.230Z,12.50
2022-10-08T04:00:50.819Z,13.20
2022-10-08T04:01:11.492Z,10.40
2022-10-08T04:01:32.251Z,11.00
2022-10-08T04:01:52.898Z,12.00
2022-10-08T04:02:13.323Z,11.70
2022-10-08T04:02:34.046Z,13.70
2022-10-08T04:02:54.699Z,13.10
2022-10-08T04:03:15.248Z,11.00
2022-10-08T04:03:35.835Z,11.90
2022-10-08T04:03:56.419Z,10.10
2022-10-08T04:04:19.667Z,11.30
2022-10-08T04:04:37.248Z,13.90
2022-10-08T04:04:57.642Z,13.40
2022-10-08T04:05:18.217Z,12.30
2022-10-08T04:05:38.804Z,12.20
2022-10-08T04:05:59.197Z,11.60
2022-10-08T04:06:19.780Z,11.40
2022-10-08T04:06:40.357Z,13.10
2022-10-08T04:07:00.755Z,11.40
2022-10-08T04:07:21.336Z,11.30
2022-10-08T04:07:41.920Z,12.10
2022-10-08T04:08:02.505Z,11.80
2022-10-08T04:08:22.912Z,10.60
2022-10-08T04:08:43.482Z,9.70
2022-10-08T04:09:03.875Z,10.80
2022-10-08T04:09:24.459Z,9.90
2022-10-08T04:09:45.057Z,10.30
2022-10-08T04:10:05.638Z,10.00
2022-10-08T04:10:26.222Z,9.60
2022-10-08T04:10:46.802Z,10.10
2022-10-08T04:11:07.387Z,10.80
2022-10-08T04:11:27.964Z,11.60
2022-10-08T04:11:48.362Z,12.60
2022-10-08T04:12:08.953Z,13.10
2022-10-08T04:12:29.533Z,11.40
2022-10-08T04:12:50.249Z,10.10
2022-10-08T04:13:10.822Z,8.70
2022-10-08T04:13:31.404Z,10.50
2022-10-08T04:13:51.988Z,10.70
2022-10-08T04:14:12.570Z,10.50
2022-10-08T04:14:32.985Z,10.80
2022-10-08T04:14:53.570Z,10.50
2022-10-08T04:15:14.147Z,10.70
2022-10-08T04:15:34.778Z,10.60
2022-10-08T04:15:55.336Z,11.40
2022-10-08T04:16:16.026Z,11.40
2022-10-08T04:16:36.607Z,10.50
2022-10-08T04:16:57.168Z,11.20
2022-10-08T04:17:17.564Z,11.40
2022-10-08T04:17:38.147Z,10.70
2022-10-08T04:17:58.730Z,10.00
2022-10-08T04:18:19.126Z,10.60
2022-10-08T04:18:39.707Z,9.90
2022-10-08T04:19:00.303Z,10.60
2022-10-08T04:19:20.882Z,11.20
2022-10-08T04:19:41.478Z,10.10
2022-10-08T04:20:02.066Z,10.80
2022-10-08T04:20:22.689Z,9.90
2022-10-08T04:20:43.253Z,9.10
2022-10-08T04:21:03.837Z,8.50
2022-10-08T04:21:24.228Z,10.20
2022-10-08T04:21:44.813Z,9.50
2022-10-08T04:22:05.393Z,11.30
2022-10-08T04:22:25.977Z,11.20
2022-10-08T04:22:46.764Z,11.10
2022-10-08T04:23:07.517Z,12.20
2022-10-08T04:23:28.099Z,10.50
2022-10-08T04:23:48.687Z,9.60
2022-10-08T04:24:09.270Z,9.20
2022-10-08T04:24:29.863Z,9.60
2022-10-08T04:24:50.446Z,9.00
2022-10-08T04:25:11.042Z,8.20
2022-10-08T04:25:31.621Z,8.70
2022-10-08T04:25:52.201Z,11.60
2022-10-08T04:26:12.789Z,10.40
2022-10-08T04:26:33.375Z,10.80
2022-10-08T04:26:53.954Z,8.60
2022-10-08T04:27:14.534Z,10.40
2022-10-08T04:27:35.128Z,10.10
2022-10-08T04:27:55.713Z,9.10
2022-10-08T04:28:16.401Z,11.30
2022-10-08T04:28:38.748Z,12.10
2022-10-08T04:28:57.368Z,9.80
2022-10-08T04:29:17.941Z,9.80
2022-10-08T04:29:38.546Z,9.40
2022-10-08T04:29:59.129Z,8.20
2022-10-08T04:30:19.535Z,8.40
2022-10-08T04:30:39.992Z,11.60
2022-10-08T04:31:00.407Z,12.50
2022-10-08T04:31:21.036Z,12.90
2022-10-08T04:31:41.594Z,11.90
2022-10-08T04:32:02.160Z,8.10
2022-10-08T04:32:22.738Z,8.70
2022-10-08T04:32:43.490Z,8.20
2022-10-08T04:33:04.114Z,8.30
2022-10-08T04:33:24.685Z,9.60
2022-10-08T04:33:46.077Z,9.40
2022-10-08T04:34:06.675Z,8.80
2022-10-08T04:34:27.264Z,10.40
2022-10-08T04:34:47.851Z,12.40
2022-10-08T04:35:08.425Z,10.00
2022-10-08T04:35:29.008Z,8.60
2022-10-08T04:35:49.593Z,8.60
2022-10-08T04:36:10.173Z,9.60
2022-10-08T04:36:30.765Z,10.40
2022-10-08T04:36:51.338Z,9.30
2022-10-08T04:37:11.740Z,10.10
2022-10-08T04:37:32.317Z,9.80
2022-10-08T04:37:52.909Z,11.90
2022-10-08T04:38:13.480Z,11.20
2022-10-08T04:38:34.072Z,8.10
2022-10-08T04:38:54.654Z,8.90
2022-10-08T04:39:15.246Z,10.70
2022-10-08T04:39:35.828Z,10.20
2022-10-08T04:39:56.411Z,9.90
2022-10-08T04:40:16.997Z,8.90
2022-10-08T04:41:25.368Z,8.40
2022-10-08T04:41:45.951Z,8.50
2022-10-08T04:42:06.538Z,9.00
2022-10-08T04:42:27.121Z,9.40
2022-10-08T04:42:50.412Z,7.90
2022-10-08T04:43:10.989Z,8.80
2022-10-08T04:43:31.568Z,10.10
2022-10-08T04:43:52.151Z,9.70
2022-10-08T04:44:12.754Z,9.20
2022-10-08T04:44:33.349Z,7.60
2022-10-08T04:44:53.934Z,8.60
2022-10-08T04:45:14.516Z,7.80
2022-10-08T04:45:35.099Z,10.30
2022-10-08T04:45:55.541Z,11.10
2022-10-08T04:46:16.163Z,9.10
2022-10-08T04:46:36.845Z,8.60
2022-10-08T04:46:57.176Z,9.40
2022-10-08T04:47:17.744Z,11.40
2022-10-08T04:47:38.328Z,11.50
2022-10-08T04:47:58.914Z,9.40
2022-10-08T04:48:19.491Z,10.50
2022-10-08T04:48:40.075Z,9.90
2022-10-08T04:49:00.658Z,8.80
2022-10-08T04:49:21.256Z,8.40
2022-10-08T04:49:41.835Z,8.70
2022-10-08T04:50:02.418Z,9.40
2022-10-08T04:50:23.002Z,10.30
2022-10-08T04:50:43.585Z,10.20
2022-10-08T04:51:08.096Z,9.90
2022-10-08T04:51:24.576Z,8.80
2022-10-08T04:51:45.154Z,8.20
2022-10-08T04:52:05.740Z,9.60
2022-10-08T04:52:26.320Z,9.50
2022-10-08T04:52:47.194Z,8.40
2022-10-08T04:53:07.947Z,9.20
2022-10-08T04:53:28.532Z,10.20
2022-10-08T04:53:49.121Z,8.30
2022-10-08T04:54:09.704Z,8.20
2022-10-08T04:54:30.309Z,8.70
2022-10-08T04:54:50.895Z,9.10
2022-10-08T04:55:11.475Z,8.60
2022-10-08T04:55:32.057Z,10.60
2022-10-08T04:55:52.652Z,10.60
2022-10-08T04:56:13.044Z,10.60
2022-10-08T04:56:33.630Z,9.60
2022-10-08T04:56:54.213Z,8.50
2022-10-08T04:57:14.794Z,9.30
2022-10-08T04:57:35.192Z,9.40
2022-10-08T04:57:55.778Z,8.40
2022-10-08T04:59:03.952Z,13.70
2022-10-08T04:59:24.346Z,10.40
2022-10-08T05:00:13.057Z,10.90
2022-10-08T05:00:18.304Z,9.10
2022-10-08T05:00:26.030Z,10.60
2022-10-08T05:00:46.610Z,11.70
2022-10-08T05:01:07.195Z,10.20
2022-10-08T05:01:27.708Z,9.20
2022-10-08T05:01:48.326Z,9.30
2022-10-08T05:02:08.991Z,8.20
2022-10-08T05:02:29.550Z,9.30
2022-10-08T05:02:50.792Z,9.40
2022-10-08T05:03:11.800Z,9.10
2022-10-08T05:03:32.418Z,9.30
2022-10-08T05:03:53.009Z,9.10
2022-10-08T05:04:13.586Z,8.90
2022-10-08T05:04:34.186Z,9.20
2022-10-08T05:04:54.761Z,9.30
2022-10-08T05:05:15.351Z,8.60
2022-10-08T05:05:35.747Z,9.10
2022-10-08T05:05:56.325Z,10.70
2022-10-08T05:06:16.916Z,7.60
2022-10-08T05:06:37.491Z,9.00
2022-10-08T05:06:58.072Z,9.60
2022-10-08T05:07:18.470Z,9.30
2022-10-08T05:07:38.865Z,8.40
2022-10-08T05:07:59.446Z,9.60
2022-10-08T05:08:20.027Z,9.90
2022-10-08T05:08:40.620Z,8.40
2022-10-08T05:09:01.187Z,10.20
2022-10-08T05:09:21.601Z,11.20
2022-10-08T05:09:42.186Z,8.30
2022-10-08T05:10:02.764Z,9.00
2022-10-08T05:10:23.368Z,8.40
2022-10-08T05:10:43.928Z,9.40
2022-10-08T05:11:04.328Z,9.60
2022-10-08T05:11:24.912Z,7.40
2022-10-08T05:11:45.306Z,9.70
2022-10-08T05:12:05.887Z,10.10
2022-10-08T05:12:26.284Z,10.30
2022-10-08T05:12:47.159Z,9.60
2022-10-08T05:13:07.850Z,9.00
2022-10-08T05:13:28.444Z,8.50
2022-10-08T05:13:49.007Z,8.90
2022-10-08T05:14:09.402Z,9.50
2022-10-08T05:14:30.001Z,9.40
2022-10-08T05:14:50.588Z,10.20
2022-10-08T05:15:11.170Z,9.30
2022-10-08T05:15:31.806Z,8.10
2022-10-08T05:15:52.412Z,7.90
2022-10-08T05:16:13.169Z,8.20
2022-10-08T05:16:33.836Z,8.20
2022-10-08T05:16:54.420Z,8.30
2022-10-08T05:17:15.030Z,8.70
2022-10-08T05:17:35.599Z,9.50
2022-10-08T05:17:56.176Z,10.50
2022-10-08T05:18:16.762Z,9.30
2022-10-08T05:18:37.345Z,8.20
2022-10-08T05:18:57.932Z,9.70
2022-10-08T05:19:18.531Z,9.90
2022-10-08T05:19:39.112Z,8.20
2022-10-08T05:19:59.697Z,9.70
2022-10-08T05:20:20.280Z,8.40
2022-10-08T05:20:40.863Z,8.70
2022-10-08T05:21:01.445Z,8.30
2022-10-08T05:21:22.030Z,9.10
2022-10-08T05:21:42.613Z,9.50
2022-10-08T05:22:03.195Z,9.40
2022-10-08T05:22:23.786Z,8.90
2022-10-08T05:22:44.644Z,9.10
2022-10-08T05:23:05.436Z,8.00
2022-10-08T05:23:26.013Z,9.10
2022-10-08T05:23:46.599Z,8.90
2022-10-08T05:24:07.179Z,9.90
2022-10-08T05:24:27.773Z,11.80
2022-10-08T05:24:48.360Z,10.60
2022-10-08T05:25:56.728Z,7.70
2022-10-08T05:26:17.314Z,9.20
2022-10-08T05:26:59.225Z,9.10
2022-10-08T05:27:04.100Z,7.60
2022-10-08T05:28:08.938Z,8.90
2022-10-08T05:28:29.634Z,8.50
2022-10-08T05:28:50.273Z,7.80
2022-10-08T05:29:10.884Z,8.00
2022-10-08T05:29:31.458Z,7.40
2022-10-08T05:29:52.041Z,7.90
2022-10-08T05:30:12.622Z,8.10
2022-10-08T05:30:33.017Z,7.60
2022-10-08T05:30:53.648Z,7.60
2022-10-08T05:31:14.299Z,8.50
2022-10-08T05:31:34.932Z,8.70
2022-10-08T05:31:55.499Z,9.20
2022-10-08T05:32:16.078Z,8.70
2022-10-08T05:32:36.808Z,8.80
2022-10-08T05:32:57.342Z,8.20
2022-10-08T05:34:05.709Z,6.20
2022-10-08T05:34:26.307Z,7.70
2022-10-08T05:34:46.892Z,10.40
2022-10-08T05:35:07.473Z,8.70
2022-10-08T05:35:28.057Z,7.60
2022-10-08T05:35:48.648Z,7.10
2022-10-08T05:36:09.230Z,8.20
2022-10-08T05:36:29.814Z,7.30
2022-10-08T05:36:50.403Z,9.60
2022-10-08T05:37:10.990Z,9.50
2022-10-08T05:37:31.577Z,8.20
2022-10-08T05:37:52.163Z,9.70
2022-10-08T05:38:12.746Z,9.90
2022-10-08T05:38:35.209Z,8.90
2022-10-08T05:38:56.006Z,10.40
2022-10-08T05:39:16.601Z,11.20
2022-10-08T05:39:36.990Z,9.30
2022-10-08T05:39:57.573Z,8.10
2022-10-08T05:40:18.159Z,9.70
2022-10-08T05:40:38.741Z,10.00
2022-10-08T05:40:59.349Z,9.80
2022-10-08T05:41:19.919Z,11.20
2022-10-08T05:41:40.504Z,7.70
2022-10-08T05:42:00.899Z,9.00
2022-10-08T05:42:21.484Z,8.10
2022-10-08T05:42:42.065Z,7.40
2022-10-08T05:43:02.648Z,8.10
2022-10-08T05:43:23.234Z,10.20
2022-10-08T05:43:43.817Z,11.10
2022-10-08T05:44:04.399Z,11.60
2022-10-08T05:44:25.004Z,9.40
2022-10-08T05:44:45.704Z,9.00
2022-10-08T05:45:06.244Z,11.20
2022-10-08T05:45:26.829Z,10.00
2022-10-08T05:45:47.410Z,10.10
2022-10-08T05:46:08.035Z,11.40
2022-10-08T05:46:28.710Z,10.40
2022-10-08T05:46:49.405Z,9.10
2022-10-08T05:47:09.987Z,10.70
2022-10-08T05:47:30.571Z,11.70
2022-10-08T05:47:51.174Z,11.10
2022-10-08T05:48:11.734Z,10.10
2022-10-08T05:48:32.317Z,10.40
2022-10-08T05:48:52.904Z,10.80
2022-10-08T05:49:13.502Z,8.90
2022-10-08T05:49:34.080Z,10.80
2022-10-08T05:49:54.662Z,10.40
2022-10-08T05:50:15.244Z,8.70
2022-10-08T05:50:35.830Z,9.50
2022-10-08T05:50:56.411Z,9.90
2022-10-08T05:51:16.992Z,10.40
2022-10-08T05:51:37.577Z,11.90
2022-10-08T05:51:58.157Z,11.70
2022-10-08T05:52:18.748Z,9.60
2022-10-08T05:52:39.336Z,9.80
2022-10-08T05:52:59.725Z,7.40
2022-10-08T05:53:20.305Z,8.20
2022-10-08T05:53:40.702Z,8.80
2022-10-08T05:54:01.283Z,8.90
2022-10-08T05:54:21.696Z,8.00
2022-10-08T05:54:42.281Z,7.90
2022-10-08T05:55:02.867Z,9.90
2022-10-08T05:55:23.452Z,10.40
2022-10-08T05:55:44.034Z,9.40
2022-10-08T05:56:04.614Z,9.50
2022-10-08T05:56:25.199Z,10.40
2022-10-08T05:56:45.596Z,8.10
2022-10-08T05:57:05.989Z,6.90
2022-10-08T05:57:26.386Z,10.00
2022-10-08T05:57:46.968Z,9.20
2022-10-08T05:58:07.555Z,9.10
2022-10-08T05:58:30.470Z,8.50
2022-10-08T05:58:51.202Z,9.40
2022-10-08T05:59:11.789Z,9.80
2022-10-08T05:59:32.389Z,9.30
2022-10-08T05:59:52.980Z,7.80
2022-10-08T06:00:13.564Z,8.20
2022-10-08T06:00:34.146Z,7.70
2022-10-08T06:00:54.732Z,9.20
2022-10-08T06:01:15.314Z,6.90
2022-10-08T06:01:35.704Z,6.80
2022-10-08T06:01:56.103Z,7.50
2022-10-08T06:02:16.698Z,7.10
2022-10-08T06:02:37.386Z,8.20
2022-10-08T06:02:58.018Z,8.00
2022-10-08T06:03:18.596Z,7.00
2022-10-08T06:03:39.190Z,8.30
2022-10-08T06:04:03.119Z,8.80
2022-10-08T06:04:20.274Z,7.10
2022-10-08T06:04:40.920Z,9.40
2022-10-08T06:05:01.550Z,7.00
2022-10-08T06:05:22.151Z,8.30
2022-10-08T06:05:42.722Z,7.50
2022-10-08T06:06:03.324Z,6.60
2022-10-08T06:06:23.894Z,7.10
2022-10-08T06:06:44.481Z,7.10
2022-10-08T06:07:05.068Z,8.40
2022-10-08T06:07:25.651Z,8.80
2022-10-08T06:07:46.233Z,8.50
2022-10-08T06:08:06.635Z,8.30
2022-10-08T06:08:27.224Z,8.10
2022-10-08T06:08:47.806Z,8.30
2022-10-08T06:09:08.410Z,7.30
2022-10-08T06:09:28.803Z,8.50
2022-10-08T06:09:49.402Z,8.50
2022-10-08T06:10:09.984Z,7.90
2022-10-08T06:10:30.564Z,7.50
2022-10-08T06:10:51.147Z,7.10
2022-10-08T06:11:11.727Z,11.00
2022-10-08T06:11:32.121Z,8.60
2022-10-08T06:11:52.705Z,7.90
2022-10-08T06:12:13.102Z,8.30
2022-10-08T06:12:33.693Z,7.70
2022-10-08T06:12:54.277Z,8.10
2022-10-08T06:13:14.852Z,8.50
2022-10-08T06:13:35.443Z,7.60
2022-10-08T06:13:55.860Z,7.30
2022-10-08T06:14:16.444Z,7.90
2022-10-08T06:14:36.848Z,7.90
2022-10-08T06:14:57.431Z,7.30
2022-10-08T06:15:18.014Z,7.60
2022-10-08T06:15:38.592Z,9.40
2022-10-08T06:15:59.242Z,7.50
2022-10-08T06:16:19.912Z,9.00
2022-10-08T06:16:40.647Z,7.50
2022-10-08T06:17:01.252Z,8.30
2022-10-08T06:17:21.834Z,6.50
2022-10-08T06:17:42.420Z,7.80
2022-10-08T06:18:03.027Z,8.00
2022-10-08T06:18:23.589Z,7.80
2022-10-08T06:18:44.179Z,9.30
2022-10-08T06:19:04.989Z,8.00
2022-10-08T06:19:25.574Z,8.00
2022-10-08T06:19:46.159Z,9.00
2022-10-08T06:20:06.744Z,7.60
2022-10-08T06:20:31.674Z,6.90
2022-10-08T06:20:47.725Z,7.60
2022-10-08T06:21:08.301Z,6.60
2022-10-08T06:21:28.887Z,7.30
2022-10-08T06:21:49.472Z,7.70
2022-10-08T06:22:10.057Z,6.80
2022-10-08T06:22:30.635Z,5.90
2022-10-08T06:22:51.233Z,6.50
2022-10-08T06:23:11.812Z,7.00
2022-10-08T06:23:32.221Z,7.90
2022-10-08T06:23:52.808Z,9.60
2022-10-08T06:24:13.214Z,8.40
2022-10-08T06:24:33.797Z,7.60
2022-10-08T06:24:54.377Z,7.30
2022-10-08T06:25:14.970Z,6.70
2022-10-08T06:25:35.554Z,5.70
2022-10-08T06:25:56.137Z,6.80
2022-10-08T06:26:16.721Z,8.00
2022-10-08T06:26:37.296Z,9.20
2022-10-08T06:26:57.884Z,8.00
2022-10-08T06:27:18.465Z,8.30
2022-10-08T06:27:39.051Z,7.50
2022-10-08T06:27:59.787Z,7.60
2022-10-08T06:28:20.423Z,7.30
2022-10-08T06:28:41.081Z,9.00
2022-10-08T06:29:01.691Z,9.00
2022-10-08T06:29:22.290Z,8.70
2022-10-08T06:29:42.866Z,8.00
2022-10-08T06:30:03.443Z,8.40
2022-10-08T06:30:24.030Z,8.50
2022-10-08T06:30:44.607Z,7.60
2022-10-08T06:31:05.268Z,6.10
2022-10-08T06:31:25.849Z,6.80
2022-10-08T06:31:46.532Z,6.20
2022-10-08T06:32:07.131Z,8.40
2022-10-08T06:32:27.716Z,6.60
2022-10-08T06:32:48.684Z,8.00
2022-10-08T06:33:09.753Z,8.60